Time;durP1;ratioP1;P1;durP2;ratioP2;P2;SDS_P1;SDS_P2;PMS_P1;PMS_P2;Temp;Humidity;BMP_temperature;BMP_pressure;BME280_temperature;BME280_humidity;BME280_pressure;Samples;Min_cycle;Max_cycle;Signal;HPM_P1;HPM_P2
2022/06/20 00:01:04;;;;;;;12.02;7.68;;;;;;;23.85;74.37;97366.47;5052029;28;20692;-69
2022/06/20 00:03:38;;;;;;;13.90;7.40;;;;;;;23.83;74.31;97360.41;5053149;28;20216;-71
2022/06/20 00:06:06;;;;;;;10.80;7.73;;;;;;;23.79;74.48;97359.19;5053243;28;20627;-69
2022/06/20 00:08:33;;;;;;;13.10;7.43;;;;;;;23.81;74.60;97359.81;5053221;28;20235;-70
2022/06/20 00:10:59;;;;;;;12.50;8.23;;;;;;;23.77;74.64;97358.53;5053237;28;20580;-70
2022/06/20 00:13:31;;;;;;;14.03;7.37;;;;;;;23.72;74.61;97368.31;5052922;28;20678;-70
2022/06/20 00:16:00;;;;;;;10.80;7.28;;;;;;;23.69;74.93;97366.84;5038425;28;20740;-69
2022/06/20 00:18:27;;;;;;;10.47;7.37;;;;;;;23.64;75.32;97361.22;5053297;28;20324;-69
2022/06/20 00:20:54;;;;;;;12.33;8.27;;;;;;;23.65;75.84;97356.69;5053311;28;20222;-69
2022/06/20 00:23:23;;;;;;;10.83;7.57;;;;;;;23.68;75.52;97362.50;5052910;28;20215;-70
2022/06/20 00:25:50;;;;;;;14.23;7.40;;;;;;;23.69;75.56;97350.66;5052824;28;20726;-70
2022/06/20 00:28:17;;;;;;;12.33;8.03;;;;;;;23.68;74.88;97349.00;5051505;28;20239;-69
2022/06/20 00:30:43;;;;;;;12.17;7.57;;;;;;;23.65;75.55;97335.09;5052826;28;20211;-69
2022/06/20 00:33:11;;;;;;;11.13;7.93;;;;;;;23.60;75.74;97341.09;5055467;28;20203;-69
2022/06/20 00:35:38;;;;;;;10.20;7.90;;;;;;;23.55;75.77;97348.16;5053167;28;20227;-69
2022/06/20 00:38:07;;;;;;;12.30;7.67;;;;;;;23.54;75.97;97341.91;5052806;28;20250;-69
2022/06/20 00:40:40;;;;;;;10.00;7.53;;;;;;;23.54;76.19;97339.22;5053092;28;20220;-70
2022/06/20 00:43:12;;;;;;;10.43;7.83;;;;;;;23.54;76.30;97339.22;5053062;28;20587;-70
2022/06/20 00:45:42;;;;;;;14.23;7.50;;;;;;;23.60;76.06;97341.09;5052979;28;20244;-69
2022/06/20 00:48:14;;;;;;;8.83;7.63;;;;;;;23.68;75.54;97357.09;5052997;28;20587;-69
2022/06/20 00:50:40;;;;;;;13.23;7.60;;;;;;;23.73;75.40;97365.41;5052973;28;20235;-70
2022/06/20 00:53:15;;;;;;;9.60;7.37;;;;;;;23.79;75.14;97374.53;5051398;28;20212;-69
2022/06/20 00:55:49;;;;;;;11.70;7.03;;;;;;;23.91;74.42;97383.72;5053014;28;20586;-69
2022/06/20 00:58:27;;;;;;;11.70;7.57;;;;;;;23.97;74.00;97383.72;5052534;28;20220;-70
2022/06/20 01:00:54;;;;;;;12.27;7.90;;;;;;;24.01;73.50;97400.34;5052738;28;20230;-70
2022/06/20 01:03:24;;;;;;;11.33;7.43;;;;;;;24.03;74.15;97407.16;5052800;28;20212;-69
2022/06/20 01:05:54;;;;;;;8.87;7.23;;;;;;;24.07;74.46;97384.13;5052330;28;20239;-69
2022/06/20 01:08:25;;;;;;;12.07;7.70;;;;;;;23.95;79.01;97393.06;5052661;28;20216;-70
2022/06/20 01:10:57;;;;;;;13.07;8.47;;;;;;;23.53;83.96;97391.50;5051209;28;20208;-70
2022/06/20 01:13:25;;;;;;;17.47;10.20;;;;;;;23.02;93.62;97354.41;5052594;28;20237;-70
2022/06/20 01:15:56;;;;;;;15.60;10.33;;;;;;;22.80;100.00;97361.78;5052705;28;20220;-70
2022/06/20 01:18:25;;;;;;;18.47;10.57;;;;;;;22.48;100.00;97367.00;5052270;28;20222;-70
2022/06/20 01:20:54;;;;;;;14.33;10.53;;;;;;;22.40;100.00;97377.91;5036319;28;20208;-69
2022/06/20 01:23:31;;;;;;;13.13;10.07;;;;;;;22.29;100.00;97368.53;5052349;28;20220;-69
2022/06/20 01:26:13;;;;;;;16.10;10.97;;;;;;;22.09;100.00;97378.31;5052206;28;20240;-70
2022/06/20 01:28:45;;;;;;;13.60;10.80;;;;;;;21.91;100.00;97369.06;5052019;28;20678;-69
2022/06/20 01:31:13;;;;;;;12.93;10.13;;;;;;;21.79;100.00;97347.25;5052544;28;20216;-68
2022/06/20 01:33:40;;;;;;;19.73;11.87;;;;;;;21.68;100.00;97349.59;5052767;28;20222;-69
2022/06/20 01:38:52;;;;;;;17.00;10.90;;;;;;;21.57;100.00;97345.56;5056446;28;20597;-71
2022/06/20 01:44:06;;;;;;;17.17;12.00;;;;;;;21.55;100.00;97346.78;5055758;28;20631;-70
2022/06/20 01:46:35;;;;;;;17.23;12.57;;;;;;;21.57;100.00;97348.25;5054357;28;20236;-68
2022/06/20 01:49:06;;;;;;;16.00;12.00;;;;;;;21.60;100.00;97350.56;5056909;28;20212;-70
2022/06/20 01:51:40;;;;;;;18.67;11.83;;;;;;;21.59;100.00;97348.06;5055750;28;20223;-70
2022/06/20 01:54:06;;;;;;;17.43;12.07;;;;;;;21.64;100.00;97353.69;5054404;28;20678;-70
2022/06/20 01:56:33;;;;;;;15.53;11.70;;;;;;;21.67;100.00;97364.94;5054667;28;20216;-70
2022/06/20 01:59:02;;;;;;;18.60;12.03;;;;;;;21.71;100.00;97352.75;5054239;28;20216;-70
2022/06/20 02:01:33;;;;;;;13.60;11.53;;;;;;;21.76;100.00;97355.69;5054624;28;20238;-70
2022/06/20 02:04:01;;;;;;;16.60;11.27;;;;;;;21.74;100.00;97363.13;5054684;28;20223;-70
2022/06/20 02:06:29;;;;;;;13.23;11.33;;;;;;;21.69;100.00;97354.81;5055697;28;20250;-69
2022/06/20 02:08:58;;;;;;;13.00;11.50;;;;;;;21.65;100.00;97366.13;5055711;28;20223;-70
2022/06/20 02:11:29;;;;;;;15.60;11.70;;;;;;;21.63;100.00;97362.81;5054150;28;20222;-70
2022/06/20 02:14:01;;;;;;;15.53;11.47;;;;;;;21.69;100.00;97345.91;5040542;28;20674;-70
2022/06/20 02:16:33;;;;;;;13.70;12.30;;;;;;;21.79;100.00;97355.31;5055718;28;20220;-70
2022/06/20 02:19:04;;;;;;;15.93;11.80;;;;;;;21.89;100.00;97353.09;5055490;28;20298;-70
2022/06/20 02:21:32;;;;;;;17.43;12.10;;;;;;;21.98;100.00;97348.41;5055026;28;20310;-70
2022/06/20 02:24:04;;;;;;;16.03;12.30;;;;;;;22.04;100.00;97348.47;5055170;28;20216;-70
2022/06/20 02:26:32;;;;;;;18.57;12.90;;;;;;;22.04;100.00;97337.72;5055316;28;20232;-70
2022/06/20 02:29:04;;;;;;;15.40;12.37;;;;;;;22.00;100.00;97336.44;5055111;28;20216;-70
2022/06/20 02:31:33;;;;;;;13.80;11.77;;;;;;;21.97;100.00;97331.44;5054548;28;20216;-69
2022/06/20 02:34:01;;;;;;;13.80;12.00;;;;;;;21.94;100.00;97331.81;5055282;28;20208;-69
2022/06/20 02:36:29;;;;;;;19.07;11.87;;;;;;;21.94;100.00;97339.91;5055102;28;20216;-71
2022/06/20 02:38:56;;;;;;;14.50;11.20;;;;;;;21.92;100.00;97333.03;5053615;28;20581;-71
2022/06/20 02:41:27;;;;;;;16.10;12.00;;;;;;;21.93;100.00;97340.09;5054787;28;20216;-70
2022/06/20 02:43:58;;;;;;;16.53;11.70;;;;;;;21.93;100.00;97334.69;5054999;28;20212;-70
2022/06/20 02:46:28;;;;;;;17.27;12.50;;;;;;;21.93;100.00;97329.31;5054631;28;20232;-70
2022/06/20 02:49:00;;;;;;;16.90;12.83;;;;;;;21.89;100.00;97334.25;5054882;28;20228;-70
2022/06/20 02:51:37;;;;;;;15.20;12.37;;;;;;;21.83;100.00;97345.81;5054922;28;20216;-70
2022/06/20 02:54:06;;;;;;;17.07;13.33;;;;;;;21.82;100.00;97354.91;5054612;28;20212;-70
2022/06/20 02:56:39;;;;;;;14.57;12.33;;;;;;;21.86;100.00;97368.81;5054921;28;20286;-70
2022/06/20 02:59:15;;;;;;;16.70;13.13;;;;;;;21.91;100.00;97380.66;5054487;28;20223;-70
2022/06/20 03:01:46;;;;;;;16.30;12.13;;;;;;;21.95;100.00;97357.69;5054648;28;20212;-70
2022/06/20 03:04:15;;;;;;;16.47;13.17;;;;;;;21.94;100.00;97364.13;5053097;28;20215;-70
2022/06/20 03:06:45;;;;;;;16.97;13.90;;;;;;;21.86;100.00;97383.09;5054215;28;20724;-70
2022/06/20 03:09:15;;;;;;;17.43;13.03;;;;;;;21.92;100.00;97368.88;5054481;28;20216;-70
2022/06/20 03:11:43;;;;;;;16.63;12.87;;;;;;;21.94;100.00;97380.25;5054425;28;20223;-70
2022/06/20 03:14:14;;;;;;;14.10;12.23;;;;;;;21.93;100.00;97369.69;5054414;28;20222;-70
2022/06/20 03:16:41;;;;;;;18.53;12.70;;;;;;;21.95;100.00;97390.00;5054029;28;20222;-70
2022/06/20 03:19:14;;;;;;;16.23;11.33;;;;;;;21.90;100.00;97395.16;5054297;28;20597;-70
2022/06/20 03:21:44;;;;;;;14.60;12.20;;;;;;;21.79;100.00;97409.13;5054224;28;20216;-70
2022/06/20 03:24:17;;;;;;;16.23;12.50;;;;;;;21.67;100.00;97405.28;5054083;28;20216;-70
2022/06/20 03:26:44;;;;;;;17.07;12.60;;;;;;;21.54;100.00;97417.72;5039474;28;20244;-70
2022/06/20 03:29:13;;;;;;;16.00;13.27;;;;;;;21.38;100.00;97443.00;5052999;28;20218;-70
2022/06/20 03:31:40;;;;;;;17.93;13.47;;;;;;;21.21;100.00;97446.91;5053669;28;20219;-70
2022/06/20 03:34:07;;;;;;;15.93;13.07;;;;;;;21.09;100.00;97443.03;5053602;28;20691;-70
2022/06/20 03:36:35;;;;;;;18.00;13.47;;;;;;;21.20;100.00;97455.16;5053965;28;20212;-70
2022/06/20 03:39:05;;;;;;;22.00;13.67;;;;;;;21.26;100.00;97471.38;5054097;28;20293;-70
2022/06/20 03:41:32;;;;;;;17.00;13.00;;;;;;;21.29;100.00;97476.41;5053728;28;20219;-70
2022/06/20 03:44:16;;;;;;;16.93;13.03;;;;;;;21.44;100.00;97485.25;5053831;28;20216;-70
2022/06/20 03:46:50;;;;;;;19.67;12.30;;;;;;;21.58;100.00;97503.19;5053481;28;20250;-70
2022/06/20 03:49:23;;;;;;;20.90;12.63;;;;;;;21.64;100.00;97512.38;5053872;28;20238;-70
2022/06/20 03:51:56;;;;;;;16.17;12.63;;;;;;;21.62;100.00;97503.66;5053834;28;20216;-70
2022/06/20 03:54:33;;;;;;;20.43;12.27;;;;;;;21.60;100.00;97511.94;5053925;28;20223;-70
2022/06/20 03:57:03;;;;;;;15.23;10.97;;;;;;;21.58;100.00;97497.00;5051141;28;20220;-70
2022/06/20 03:59:36;;;;;;;15.37;11.77;;;;;;;21.34;100.00;97510.78;5053113;28;20216;-70
2022/06/20 04:02:05;;;;;;;14.00;11.60;;;;;;;20.90;100.00;97491.97;5052842;28;20212;-70
2022/06/20 04:04:37;;;;;;;13.37;10.57;;;;;;;20.45;100.00;97481.38;5053513;28;20219;-70
2022/06/20 04:07:10;;;;;;;17.40;10.90;;;;;;;20.28;100.00;97490.59;5053200;28;20326;-70
2022/06/20 04:12:37;;;;;;;14.17;9.57;;;;;;;20.26;100.00;97540.94;5053150;28;20223;-71
2022/06/20 04:15:10;;;;;;;15.00;10.53;;;;;;;20.26;100.00;97540.94;5053376;28;20638;-70
2022/06/20 04:20:36;;;;;;;11.87;9.30;;;;;;;20.18;100.00;97548.22;5062555;28;20214;-70
2022/06/20 04:23:08;;;;;;;12.50;9.80;;;;;;;20.21;100.00;97543.31;5051543;28;20218;-70
2022/06/20 04:25:40;;;;;;;14.47;8.87;;;;;;;20.19;100.00;97533.78;5052140;28;20241;-70
2022/06/20 04:28:15;;;;;;;11.50;8.13;;;;;;;20.16;100.00;97534.97;5052896;28;20579;-70
2022/06/20 04:30:47;;;;;;;10.50;7.97;;;;;;;20.15;100.00;97533.31;5052952;28;20223;-70
2022/06/20 04:33:19;;;;;;;12.47;8.73;;;;;;;20.15;100.00;97529.78;5052677;28;20223;-70
2022/06/20 04:35:52;;;;;;;10.40;7.60;;;;;;;20.21;100.00;97537.09;5052723;28;20262;-70
2022/06/20 04:38:25;;;;;;;11.20;7.47;;;;;;;20.33;100.00;97549.94;5053060;28;20246;-70
2022/06/20 04:40:59;;;;;;;11.10;7.53;;;;;;;20.47;100.00;97569.78;5052911;28;20583;-70
2022/06/20 04:43:32;;;;;;;13.30;8.00;;;;;;;20.52;100.00;97589.69;5037980;28;20220;-70
2022/06/20 04:46:04;;;;;;;10.23;7.30;;;;;;;20.55;100.00;97626.09;5052819;28;20240;-70
2022/06/20 04:48:31;;;;;;;13.40;7.43;;;;;;;20.61;100.00;97609.25;5051241;28;20216;-70
2022/06/20 04:51:01;;;;;;;10.30;7.33;;;;;;;20.63;100.00;97591.94;5052925;28;20214;-70
2022/06/20 04:53:31;;;;;;;10.83;7.70;;;;;;;20.66;100.00;97583.50;5052933;28;20208;-71
2022/06/20 04:56:04;;;;;;;10.17;7.03;;;;;;;20.65;100.00;97560.38;5052856;28;20337;-71
2022/06/20 04:58:35;;;;;;;12.30;7.40;;;;;;;20.63;100.00;97538.25;5052886;28;20218;-71
2022/06/20 05:01:03;;;;;;;11.40;7.90;;;;;;;20.65;100.00;97520.09;5052514;28;20216;-70
2022/06/20 05:03:35;;;;;;;12.10;7.57;;;;;;;20.51;100.00;97523.59;5052511;28;20219;-70
2022/06/20 05:06:05;;;;;;;10.30;7.07;;;;;;;20.35;100.00;97541.69;5052233;28;20686;-70
2022/06/20 05:08:35;;;;;;;13.10;7.77;;;;;;;20.17;100.00;97546.53;5054408;28;20220;-71
2022/06/20 05:11:07;;;;;;;12.00;7.83;;;;;;;20.10;100.00;97559.81;5056606;28;20218;-72
2022/06/20 05:13:41;;;;;;;10.97;7.53;;;;;;;20.15;100.00;97560.13;5054535;28;20693;-70
2022/06/20 05:16:15;;;;;;;12.73;7.70;;;;;;;20.17;100.00;97565.31;5056292;28;20662;-70
2022/06/20 05:18:45;;;;;;;11.00;7.17;;;;;;;20.23;100.00;97573.47;5055925;28;20220;-70
2022/06/20 05:21:16;;;;;;;9.13;6.43;;;;;;;20.30;100.00;97557.50;5056606;28;20219;-69
2022/06/20 05:23:46;;;;;;;12.13;6.80;;;;;;;20.39;100.00;97568.00;5056131;28;20212;-70
2022/06/20 05:26:18;;;;;;;10.30;6.30;;;;;;;20.53;100.00;97559.13;5056393;28;20242;-70
2022/06/20 05:28:49;;;;;;;8.20;5.63;;;;;;;20.59;100.00;97553.03;5055245;28;20208;-70
2022/06/20 05:31:20;;;;;;;8.47;5.60;;;;;;;20.69;100.00;97569.75;5052567;28;20583;-70
2022/06/20 05:33:52;;;;;;;9.80;5.40;;;;;;;20.75;100.00;97546.69;5054243;28;20739;-70
2022/06/20 05:36:23;;;;;;;10.73;5.80;;;;;;;20.83;99.94;97576.97;5054888;28;20226;-70
2022/06/20 05:38:56;;;;;;;9.00;5.73;;;;;;;20.70;100.00;97579.47;5054917;28;20706;-70
2022/06/20 05:41:24;;;;;;;7.77;5.87;;;;;;;20.54;100.00;97576.91;5052814;28;20212;-70
2022/06/20 05:43:51;;;;;;;9.30;5.57;;;;;;;20.44;100.00;97573.66;5054577;28;20212;-70
2022/06/20 05:46:25;;;;;;;8.63;5.63;;;;;;;20.49;100.00;97594.59;5054661;28;20245;-69
2022/06/20 05:48:55;;;;;;;12.77;5.80;;;;;;;20.58;100.00;97617.66;5054529;28;20216;-70
2022/06/20 05:51:25;;;;;;;7.17;5.47;;;;;;;20.66;100.00;97618.44;5054283;28;20226;-70
2022/06/20 05:53:55;;;;;;;8.80;5.93;;;;;;;20.75;100.00;97606.63;5054658;28;20226;-70
2022/06/20 05:56:30;;;;;;;8.17;5.70;;;;;;;20.86;100.00;97610.69;5054521;28;20216;-70
2022/06/20 05:58:57;;;;;;;8.33;6.10;;;;;;;20.93;100.00;97599.09;5054468;28;20215;-70
2022/06/20 06:01:30;;;;;;;9.10;6.00;;;;;;;21.06;100.00;97610.03;5054205;28;20669;-70
2022/06/20 06:04:05;;;;;;;8.83;5.80;;;;;;;21.22;100.00;97612.53;5054194;28;20220;-69
2022/06/20 06:06:38;;;;;;;8.73;5.60;;;;;;;21.39;100.00;97614.03;5052510;28;20245;-69
2022/06/20 06:09:11;;;;;;;8.53;5.53;;;;;;;21.49;97.52;97611.91;5053155;28;20222;-69
2022/06/20 06:11:46;;;;;;;5.83;4.93;;;;;;;21.66;95.62;97617.91;5053274;28;20220;-70
2022/06/20 06:14:20;;;;;;;8.47;5.83;;;;;;;21.84;93.57;97613.00;5054054;28;20215;-69
2022/06/20 06:16:54;;;;;;;9.37;5.27;;;;;;;21.94;91.71;97606.28;5053748;28;20212;-70
2022/06/20 06:19:38;;;;;;;9.57;5.20;;;;;;;21.96;87.53;97601.56;5052927;28;20216;-70
2022/06/20 06:22:08;;;;;;;7.10;4.90;;;;;;;21.95;84.23;97602.56;5053654;28;20216;-69
2022/06/20 06:24:40;;;;;;;7.03;4.90;;;;;;;21.92;83.91;97613.72;5050539;28;20224;-70
2022/06/20 06:27:12;;;;;;;9.20;5.10;;;;;;;21.97;83.47;97619.38;5053035;28;20242;-69
2022/06/20 06:29:48;;;;;;;6.30;4.70;;;;;;;22.06;84.41;97620.91;5043344;28;20208;-70
2022/06/20 06:32:18;;;;;;;7.13;4.77;;;;;;;22.25;85.66;97624.88;5052403;28;20216;-70
2022/06/20 06:34:53;;;;;;;5.60;4.07;;;;;;;22.37;85.49;97618.78;5043620;28;20641;-70
2022/06/20 06:37:24;;;;;;;7.03;4.70;;;;;;;22.36;85.64;97617.13;5052029;28;20247;-70
2022/06/20 06:39:54;;;;;;;8.03;5.17;;;;;;;22.33;85.35;97612.13;5039706;28;20219;-70
2022/06/20 06:42:22;;;;;;;6.93;5.10;;;;;;;22.41;85.05;97620.06;5053155;28;20220;-70
2022/06/20 06:44:50;;;;;;;9.70;6.47;;;;;;;22.82;80.82;97612.19;5052517;28;20243;-70
2022/06/20 06:47:21;;;;;;;7.43;4.67;;;;;;;23.95;76.38;97611.72;5049000;28;20235;-70
2022/06/20 06:49:53;;;;;;;6.43;4.83;;;;;;;24.87;71.61;97609.00;5053142;28;20621;-70
2022/06/20 06:52:28;;;;;;;12.80;5.43;;;;;;;25.14;68.92;97621.50;5052794;28;20226;-70
2022/06/20 06:54:58;;;;;;;8.63;5.00;;;;;;;24.79;69.26;97624.59;5051627;28;20226;-69
2022/06/20 06:57:33;;;;;;;8.40;4.50;;;;;;;25.29;70.09;97618.59;5052665;28;20216;-69
2022/06/20 07:00:22;;;;;;;7.37;4.90;;;;;;;26.00;65.03;97618.44;5051152;28;20353;-69
2022/06/20 07:02:53;;;;;;;7.90;5.23;;;;;;;25.59;64.57;97623.31;5049932;28;20223;-70
2022/06/20 07:05:28;;;;;;;8.37;4.83;;;;;;;25.48;67.76;97623.97;5039294;28;20251;-70
2022/06/20 07:07:59;;;;;;;11.30;5.17;;;;;;;25.78;66.99;97625.13;5052440;28;20632;-70
2022/06/20 07:10:33;;;;;;;7.13;4.37;;;;;;;26.53;64.69;97630.66;5051520;28;20211;-70
2022/06/20 07:13:05;;;;;;;6.93;4.43;;;;;;;27.19;62.88;97641.91;5050642;28;20216;-71
2022/06/20 07:15:33;;;;;;;6.00;4.27;;;;;;;27.32;59.89;97641.81;5052132;28;20212;-70
2022/06/20 07:18:02;;;;;;;6.65;4.50;;;;;;;26.90;61.74;97643.38;5051536;28;20212;-70
2022/06/20 07:20:33;;;;;;;5.20;4.70;;;;;;;26.27;65.43;97644.34;5052382;28;20212;-70
2022/06/20 07:23:03;;;;;;;5.93;4.37;;;;;;;25.81;66.83;97640.13;5051942;28;20223;-70
2022/06/20 07:25:35;;;;;;;7.33;4.47;;;;;;;25.59;70.57;97644.97;5050891;28;20223;-71
2022/06/20 07:28:12;;;;;;;7.17;4.57;;;;;;;25.40;69.77;97643.13;5050449;28;20243;-70
2022/06/20 07:30:43;;;;;;;8.85;5.30;;;;;;;25.36;71.09;97636.47;5049866;28;20633;-70
2022/06/20 07:33:14;;;;;;;8.52;5.68;;;;;;;25.33;70.33;97639.63;5051175;28;20215;-70
2022/06/20 07:35:44;;;;;;;7.30;4.90;;;;;;;25.39;71.83;97644.19;5050508;28;20587;-70
2022/06/20 07:38:14;;;;;;;8.77;4.87;;;;;;;25.53;72.96;97635.00;5048707;28;20236;-70
2022/06/20 07:40:46;;;;;;;6.47;5.10;;;;;;;25.65;72.28;97636.00;5051817;28;20212;-70
2022/06/20 07:43:21;;;;;;;8.95;5.60;;;;;;;25.77;70.21;97650.56;5051832;28;20216;-70
2022/06/20 07:45:51;;;;;;;6.87;5.13;;;;;;;25.67;69.50;97644.75;5050718;28;20491;-70
2022/06/20 07:48:21;;;;;;;9.15;5.30;;;;;;;25.61;70.36;97637.47;5051128;28;20243;-70
2022/06/20 07:50:53;;;;;;;8.15;5.53;;;;;;;25.70;66.63;97635.38;5051600;28;20217;-71
2022/06/20 07:53:25;;;;;;;7.72;5.18;;;;;;;25.75;65.21;97652.66;5050302;28;20770;-71
2022/06/20 07:55:57;;;;;;;8.88;5.78;;;;;;;25.72;66.23;97650.34;5052361;28;20212;-72
2022/06/20 07:58:30;;;;;;;8.00;5.60;;;;;;;25.82;67.03;97664.28;5052421;28;20216;-70
2022/06/20 08:00:56;;;;;;;9.30;6.05;;;;;;;25.84;64.81;97666.78;5052361;28;20212;-71
2022/06/20 08:03:28;;;;;;;9.10;5.70;;;;;;;25.81;62.92;97661.78;5052620;28;20216;-71
2022/06/20 08:05:59;;;;;;;9.70;5.70;;;;;;;25.79;61.33;97656.56;5052081;28;20208;-71
2022/06/20 08:08:30;;;;;;;10.55;5.88;;;;;;;25.69;60.74;97675.16;5052173;28;20235;-72
2022/06/20 08:11:03;;;;;;;11.90;5.77;;;;;;;25.65;60.69;97673.06;5039057;28;20663;-71
2022/06/20 08:13:36;;;;;;;9.48;5.40;;;;;;;25.64;62.17;97669.53;5036924;28;20670;-71
2022/06/20 08:16:08;;;;;;;12.68;6.00;;;;;;;25.62;61.75;97679.75;5051160;28;20207;-71
2022/06/20 08:18:35;;;;;;;10.27;5.50;;;;;;;25.63;61.57;97677.84;5050216;28;20224;-71
2022/06/20 08:21:11;;;;;;;9.10;5.70;;;;;;;25.70;60.36;97665.13;5046609;28;20208;-75
2022/06/20 08:23:44;;;;;;;9.77;5.97;;;;;;;25.59;61.71;97661.22;5046856;28;20220;-74
2022/06/20 08:26:14;;;;;;;8.05;5.63;;;;;;;25.49;62.48;97674.34;5045784;28;20376;-74
2022/06/20 08:28:49;;;;;;;9.90;5.80;;;;;;;25.41;63.32;97655.63;5046248;28;20246;-71
2022/06/20 08:31:21;;;;;;;8.52;5.47;;;;;;;25.50;62.67;97664.34;5044275;28;20216;-75
2022/06/20 08:33:54;;;;;;;9.30;5.78;;;;;;;25.60;61.70;97654.75;5049632;28;20212;-77
2022/06/20 08:36:26;;;;;;;10.75;5.85;;;;;;;25.68;62.18;97657.25;5050314;28;20223;-78
2022/06/20 08:39:01;;;;;;;11.63;5.93;;;;;;;25.86;58.55;97665.53;5049983;28;20240;-79
2022/06/20 08:42:14;;;;;;;9.95;5.82;;;;;;;25.86;56.27;97667.41;5040012;28;20218;-79
2022/06/20 08:44:56;;;;;;;8.10;5.27;;;;;;;25.89;58.78;97672.38;4988394;28;20684;-77
2022/06/20 08:47:59;;;;;;;9.40;5.35;;;;;;;26.04;58.38;97676.53;4974125;28;20601;-72
2022/06/20 08:51:00;;;;;;;8.25;5.22;;;;;;;26.26;56.07;97671.66;5042643;28;20211;-78
2022/06/20 08:56:52;;;;;;;8.75;5.63;;;;;;;26.25;55.98;97670.84;5032187;28;20216;-72
2022/06/20 08:59:44;;;;;;;6.55;5.43;;;;;;;26.24;56.85;97674.59;5051489;28;20215;-71
2022/06/20 09:02:26;;;;;;;10.25;5.88;;;;;;;26.28;55.46;97675.00;5048939;28;20250;-72
2022/06/20 09:05:08;;;;;;;7.95;6.10;;;;;;;26.40;55.36;97690.34;5051406;28;20244;-71
2022/06/20 09:08:09;;;;;;;6.73;5.30;;;;;;;26.40;56.28;97678.69;5051450;28;20262;-72
2022/06/20 09:10:51;;;;;;;9.50;5.30;;;;;;;26.47;57.10;97693.03;5049285;28;20223;-71
2022/06/20 09:13:33;;;;;;;7.90;5.13;;;;;;;26.64;57.22;97691.53;5049638;28;20222;-70
2022/06/20 09:16:11;;;;;;;7.00;5.32;;;;;;;26.89;56.26;97682.38;5051240;28;20216;-70
2022/06/20 09:18:54;;;;;;;8.50;5.20;;;;;;;27.13;56.09;97686.19;5051344;28;20517;-70
2022/06/20 09:21:32;;;;;;;6.45;5.70;;;;;;;27.46;52.68;97687.59;5051403;28;20223;-70
2022/06/20 09:24:16;;;;;;;7.00;5.55;;;;;;;27.57;53.24;97684.16;5051381;28;20583;-71
2022/06/20 09:26:53;;;;;;;8.38;6.03;;;;;;;27.72;52.67;97687.34;5039711;28;20222;-71
2022/06/20 09:29:52;;;;;;;9.02;5.38;;;;;;;28.00;50.96;97690.44;5050936;28;20219;-74
2022/06/20 09:32:48;;;;;;;8.13;5.53;;;;;;;28.14;49.68;97697.38;5049965;28;20226;-80
2022/06/20 09:35:42;;;;;;;9.20;5.43;;;;;;;28.16;50.18;97695.25;5007160;28;20212;-72
2022/06/20 09:38:26;;;;;;;8.75;5.00;;;;;;;28.16;51.09;97701.53;5051854;28;20240;-71
2022/06/20 09:40:57;;;;;;;7.88;4.95;;;;;;;28.30;49.71;97689.44;5049451;28;20222;-71
2022/06/20 09:43:35;;;;;;;10.35;5.45;;;;;;;28.44;50.73;97687.41;5050819;28;20674;-71
2022/06/20 09:46:07;;;;;;;7.10;5.32;;;;;;;28.84;49.08;97685.81;5049090;28;20212;-70
2022/06/20 09:48:40;;;;;;;10.93;5.40;;;;;;;29.08;47.53;97693.84;5051060;28;20239;-70
2022/06/20 09:51:22;;;;;;;9.27;5.57;;;;;;;29.24;46.87;97695.06;5050756;28;20678;-70
2022/06/20 09:53:59;;;;;;;7.32;5.93;;;;;;;29.24;46.32;97698.63;5048650;28;20618;-78
2022/06/20 09:56:35;;;;;;;8.13;5.10;;;;;;;29.25;47.23;97685.84;5053693;28;20215;-70
2022/06/20 09:59:10;;;;;;;6.63;5.32;;;;;;;29.21;46.46;97690.06;5054134;28;20265;-76
2022/06/20 10:01:44;;;;;;;6.95;5.60;;;;;;;29.27;47.39;97694.59;5051969;28;20681;-76
2022/06/20 10:04:20;;;;;;;8.05;5.32;;;;;;;29.09;47.77;97692.78;5054785;28;20231;-76
2022/06/20 10:07:00;;;;;;;10.50;5.70;;;;;;;29.03;47.65;97692.91;5052606;28;20215;-76
2022/06/20 10:09:36;;;;;;;7.18;5.13;;;;;;;29.18;47.50;97685.13;5051724;28;20227;-77
2022/06/20 10:12:10;;;;;;;8.70;5.72;;;;;;;29.23;46.55;97688.78;5054336;28;20615;-70
2022/06/20 10:14:46;;;;;;;8.13;5.00;;;;;;;29.60;46.87;97684.03;5054061;28;20258;-70
2022/06/20 10:17:18;;;;;;;7.60;5.15;;;;;;;29.71;45.97;97686.72;5054075;28;20226;-69
2022/06/20 10:19:53;;;;;;;8.38;5.30;;;;;;;29.22;46.30;97686.31;5041981;28;20216;-70
2022/06/20 10:22:37;;;;;;;9.35;5.70;;;;;;;29.01;47.94;97678.69;5054235;28;20210;-69
2022/06/20 10:25:39;;;;;;;7.57;5.15;;;;;;;28.96;47.17;97686.72;5054122;28;20220;-70
2022/06/20 10:28:15;;;;;;;7.80;5.15;;;;;;;29.13;47.56;97693.16;5044296;28;20245;-70
2022/06/20 10:30:48;;;;;;;7.88;5.70;;;;;;;28.92;47.14;97685.50;5053744;28;20220;-75
2022/06/20 10:33:35;;;;;;;11.15;5.65;;;;;;;28.77;47.61;97688.63;5051499;28;20208;-70
2022/06/20 10:36:14;;;;;;;8.18;5.25;;;;;;;28.81;47.62;97689.00;5053531;28;20219;-74
2022/06/20 10:38:47;;;;;;;7.85;5.47;;;;;;;28.83;48.60;97697.75;5053773;28;20256;-69
2022/06/20 10:41:22;;;;;;;9.10;5.30;;;;;;;28.91;47.45;97694.72;5053814;28;20458;-69
2022/06/20 10:43:56;;;;;;;7.53;5.20;;;;;;;28.78;48.53;97690.28;5053747;28;20425;-69
2022/06/20 10:46:26;;;;;;;8.07;5.32;;;;;;;28.96;48.78;97698.44;5053582;28;20212;-69
2022/06/20 10:49:32;;;;;;;8.85;5.57;;;;;;;29.05;47.32;97697.03;5053783;28;20236;-69
2022/06/20 10:52:11;;;;;;;11.90;5.38;;;;;;;29.39;46.47;97706.31;5052224;28;20212;-75
2022/06/20 10:54:49;;;;;;;7.65;5.53;;;;;;;29.51;46.22;97701.72;5053444;28;20218;-75
2022/06/20 10:57:25;;;;;;;13.35;5.28;;;;;;;29.41;46.52;97706.94;5049540;28;20211;-70
2022/06/20 11:00:03;;;;;;;8.60;5.82;;;;;;;29.23;46.01;97715.19;5045898;28;20560;-75
2022/06/20 11:02:42;;;;;;;12.98;5.63;;;;;;;28.95;46.67;97712.25;5053284;28;20211;-74
2022/06/20 11:05:19;;;;;;;8.57;5.68;;;;;;;28.85;47.61;97707.34;5053235;28;20212;-69
2022/06/20 11:07:56;;;;;;;8.35;5.55;;;;;;;29.12;48.06;97716.00;5047619;28;20591;-69
2022/06/20 11:11:02;;;;;;;10.15;5.80;;;;;;;29.31;47.27;97712.97;5049527;28;20219;-76
2022/06/20 11:13:35;;;;;;;9.80;5.90;;;;;;;29.36;46.54;97725.88;5032866;28;20212;-70
2022/06/20 11:16:11;;;;;;;8.07;5.45;;;;;;;29.17;46.65;97727.81;5052152;28;20216;-77
2022/06/20 11:18:54;;;;;;;8.75;5.70;;;;;;;29.32;47.49;97730.13;5051361;28;20220;-72
2022/06/20 11:21:30;;;;;;;10.07;5.90;;;;;;;29.42;46.54;97746.72;5049326;28;20212;-73
2022/06/20 11:24:11;;;;;;;7.65;5.47;;;;;;;29.20;46.77;97742.88;5052040;28;20692;-78
2022/06/20 11:26:49;;;;;;;9.02;5.95;;;;;;;29.10;45.84;97758.94;5043953;28;20220;-79
2022/06/20 11:29:33;;;;;;;8.80;5.60;;;;;;;29.14;46.18;97744.63;5051731;28;20246;-79
2022/06/20 11:32:06;;;;;;;8.30;5.45;;;;;;;28.96;46.63;97760.16;5051844;28;20218;-79
2022/06/20 11:35:05;;;;;;;11.23;5.53;;;;;;;28.90;46.16;97764.63;5051979;28;20303;-83
2022/06/20 11:37:55;;;;;;;9.45;5.30;;;;;;;28.81;46.89;97759.72;5042549;28;20250;-78
2022/06/20 11:40:45;;;;;;;9.13;4.78;;;;;;;28.66;46.87;97770.16;5044410;28;20212;-76
2022/06/20 11:44:06;;;;;;;9.68;4.57;;;;;;;28.67;47.86;97780.00;5043207;28;20216;-78
2022/06/20 11:46:59;;;;;;;8.98;4.63;;;;;;;28.44;47.52;97782.59;5018633;28;20220;-77
2022/06/20 11:49:42;;;;;;;7.25;5.03;;;;;;;28.13;48.48;97788.94;5015899;28;20241;-83
2022/06/20 11:52:17;;;;;;;8.05;4.70;;;;;;;28.10;49.09;97788.56;5041839;28;20220;-78
2022/06/20 11:54:52;;;;;;;8.80;4.85;;;;;;;28.41;49.11;97796.63;5049074;28;20269;-76
2022/06/20 11:57:29;;;;;;;7.68;5.10;;;;;;;28.45;48.91;97797.84;5051529;28;20306;-78
2022/06/20 12:00:02;;;;;;;6.82;5.53;;;;;;;27.99;50.02;97797.44;5051130;28;20216;-78
2022/06/20 12:02:46;;;;;;;9.55;5.35;;;;;;;27.80;51.19;97798.44;5048185;28;20224;-78
2022/06/20 12:05:36;;;;;;;10.15;6.00;;;;;;;27.45;52.27;97800.78;5050850;28;20211;-75
2022/06/20 12:08:15;;;;;;;8.85;4.88;;;;;;;27.54;53.21;97804.06;5046860;28;20235;-69
2022/06/20 12:10:47;;;;;;;9.60;6.05;;;;;;;27.77;52.40;97805.16;5042782;28;20219;-69